sensor_id;sensor_type;location;lat;lon;timestamp;P1;durP1;ratioP1;P2;durP2;ratioP2
34920;SDS011;21128;50.016;20.002;2022-12-07T00:02:28;17.73;;;10.17;;
34920;SDS011;21128;50.016;20.002;2022-12-07T00:05:13;16.20;;;10.30;;
34920;SDS011;21128;50.016;20.002;2022-12-07T00:08:06;16.05;;;9.95;;
34920;SDS011;21128;50.016;20.002;2022-12-07T00:11:02;15.25;;;9.35;;
34920;SDS011;21128;50.016;20.002;2022-12-07T00:13:54;16.73;;;9.90;;
34920;SDS011;21128;50.016;20.002;2022-12-07T00:16:42;12.75;;;8.95;;
34920;SDS011;21128;50.016;20.002;2022-12-07T00:19:29;14.27;;;9.43;;
34920;SDS011;21128;50.016;20.002;2022-12-07T00:22:14;13.37;;;9.07;;
34920;SDS011;21128;50.016;20.002;2022-12-07T00:25:00;13.67;;;8.97;;
34920;SDS011;21128;50.016;20.002;2022-12-07T00:27:45;12.10;;;8.63;;
34920;SDS011;21128;50.016;20.002;2022-12-07T00:30:31;16.15;;;9.05;;
34920;SDS011;21128;50.016;20.002;2022-12-07T00:33:16;14.93;;;9.20;;
34920;SDS011;21128;50.016;20.002;2022-12-07T00:36:03;12.67;;;8.10;;
34920;SDS011;21128;50.016;20.002;2022-12-07T00:38:59;14.33;;;8.80;;
34920;SDS011;21128;50.016;20.002;2022-12-07T00:41:46;13.40;;;9.10;;
34920;SDS011;21128;50.016;20.002;2022-12-07T00:44:32;12.83;;;8.60;;
34920;SDS011;21128;50.016;20.002;2022-12-07T00:47:24;15.90;;;8.27;;
34920;SDS011;21128;50.016;20.002;2022-12-07T00:50:10;13.23;;;9.30;;
34920;SDS011;21128;50.016;20.002;2022-12-07T00:52:58;15.07;;;8.37;;
34920;SDS011;21128;50.016;20.002;2022-12-07T00:55:50;14.33;;;9.27;;
34920;SDS011;21128;50.016;20.002;2022-12-07T00:58:43;10.32;;;8.20;;
34920;SDS011;21128;50.016;20.002;2022-12-07T01:01:35;12.87;;;8.90;;
34920;SDS011;21128;50.016;20.002;2022-12-07T01:04:22;14.17;;;9.43;;
34920;SDS011;21128;50.016;20.002;2022-12-07T01:07:07;12.65;;;8.25;;
34920;SDS011;21128;50.016;20.002;2022-12-07T01:10:00;16.33;;;9.30;;
34920;SDS011;21128;50.016;20.002;2022-12-07T01:12:45;14.03;;;9.70;;
34920;SDS011;21128;50.016;20.002;2022-12-07T01:15:31;11.77;;;8.40;;
34920;SDS011;21128;50.016;20.002;2022-12-07T01:18:17;14.37;;;9.50;;
34920;SDS011;21128;50.016;20.002;2022-12-07T01:21:03;16.37;;;9.17;;
34920;SDS011;21128;50.016;20.002;2022-12-07T01:23:51;14.40;;;9.67;;
34920;SDS011;21128;50.016;20.002;2022-12-07T01:26:37;13.13;;;9.50;;
34920;SDS011;21128;50.016;20.002;2022-12-07T01:29:23;11.03;;;8.23;;
34920;SDS011;21128;50.016;20.002;2022-12-07T01:32:09;12.10;;;8.90;;
34920;SDS011;21128;50.016;20.002;2022-12-07T01:34:55;13.60;;;8.65;;
34920;SDS011;21128;50.016;20.002;2022-12-07T01:37:41;14.03;;;8.77;;
34920;SDS011;21128;50.016;20.002;2022-12-07T01:40:26;13.10;;;8.63;;
34920;SDS011;21128;50.016;20.002;2022-12-07T01:43:16;13.57;;;8.70;;
34920;SDS011;21128;50.016;20.002;2022-12-07T01:46:10;14.97;;;9.57;;
34920;SDS011;21128;50.016;20.002;2022-12-07T01:48:56;14.23;;;9.43;;
34920;SDS011;21128;50.016;20.002;2022-12-07T01:51:42;14.63;;;9.30;;
34920;SDS011;21128;50.016;20.002;2022-12-07T01:54:30;13.87;;;8.97;;
34920;SDS011;21128;50.016;20.002;2022-12-07T01:57:17;15.80;;;10.40;;
34920;SDS011;21128;50.016;20.002;2022-12-07T02:00:10;16.37;;;9.63;;
34920;SDS011;21128;50.016;20.002;2022-12-07T02:03:00;14.87;;;10.37;;
34920;SDS011;21128;50.016;20.002;2022-12-07T02:05:55;18.15;;;11.10;;
34920;SDS011;21128;50.016;20.002;2022-12-07T02:08:45;14.43;;;10.20;;
34920;SDS011;21128;50.016;20.002;2022-12-07T02:11:38;15.83;;;10.00;;
34920;SDS011;21128;50.016;20.002;2022-12-07T02:14:24;15.50;;;10.00;;
34920;SDS011;21128;50.016;20.002;2022-12-07T02:26:29;16.13;;;10.47;;
34920;SDS011;21128;50.016;20.002;2022-12-07T02:29:39;16.57;;;9.73;;
34920;SDS011;21128;50.016;20.002;2022-12-07T02:41:47;18.07;;;10.90;;
34920;SDS011;21128;50.016;20.002;2022-12-07T02:44:45;18.73;;;11.20;;
34920;SDS011;21128;50.016;20.002;2022-12-07T02:47:38;15.47;;;10.67;;
34920;SDS011;21128;50.016;20.002;2022-12-07T02:50:26;14.97;;;10.57;;
34920;SDS011;21128;50.016;20.002;2022-12-07T03:11:48;14.70;;;11.10;;
34920;SDS011;21128;50.016;20.002;2022-12-07T03:14:48;16.57;;;12.10;;
34920;SDS011;21128;50.016;20.002;2022-12-07T03:17:58;17.37;;;12.37;;
34920;SDS011;21128;50.016;20.002;2022-12-07T03:20:46;18.13;;;12.00;;
34920;SDS011;21128;50.016;20.002;2022-12-07T03:23:37;16.87;;;11.77;;
34920;SDS011;21128;50.016;20.002;2022-12-07T03:26:36;17.30;;;12.13;;
34920;SDS011;21128;50.016;20.002;2022-12-07T03:29:37;19.27;;;12.67;;
34920;SDS011;21128;50.016;20.002;2022-12-07T03:35:22;18.23;;;13.17;;
34920;SDS011;21128;50.016;20.002;2022-12-07T03:41:06;20.95;;;14.70;;
34920;SDS011;21128;50.016;20.002;2022-12-07T03:43:55;19.40;;;14.03;;
34920;SDS011;21128;50.016;20.002;2022-12-07T03:49:51;22.80;;;14.93;;
34920;SDS011;21128;50.016;20.002;2022-12-07T03:52:45;21.57;;;15.27;;
34920;SDS011;21128;50.016;20.002;2022-12-07T03:55:40;23.13;;;14.43;;
34920;SDS011;21128;50.016;20.002;2022-12-07T03:58:36;21.25;;;14.75;;
34920;SDS011;21128;50.016;20.002;2022-12-07T04:01:23;19.13;;;14.27;;
34920;SDS011;21128;50.016;20.002;2022-12-07T04:04:10;21.60;;;15.23;;
34920;SDS011;21128;50.016;20.002;2022-12-07T04:06:57;22.10;;;15.00;;
34920;SDS011;21128;50.016;20.002;2022-12-07T04:09:42;18.17;;;13.57;;
34920;SDS011;21128;50.016;20.002;2022-12-07T04:12:34;26.15;;;14.85;;
34920;SDS011;21128;50.016;20.002;2022-12-07T04:15:19;21.30;;;14.73;;
34920;SDS011;21128;50.016;20.002;2022-12-07T04:18:05;22.45;;;14.00;;
34920;SDS011;21128;50.016;20.002;2022-12-07T04:20:51;21.43;;;13.97;;
34920;SDS011;21128;50.016;20.002;2022-12-07T04:23:36;23.10;;;14.87;;
34920;SDS011;21128;50.016;20.002;2022-12-07T04:26:22;20.15;;;13.20;;
34920;SDS011;21128;50.016;20.002;2022-12-07T04:29:07;19.17;;;13.03;;
34920;SDS011;21128;50.016;20.002;2022-12-07T04:31:54;21.67;;;13.13;;
34920;SDS011;21128;50.016;20.002;2022-12-07T04:34:40;18.40;;;12.53;;
34920;SDS011;21128;50.016;20.002;2022-12-07T04:37:25;18.33;;;12.27;;
34920;SDS011;21128;50.016;20.002;2022-12-07T04:40:11;19.50;;;13.00;;
34920;SDS011;21128;50.016;20.002;2022-12-07T04:42:59;19.93;;;13.50;;
34920;SDS011;21128;50.016;20.002;2022-12-07T04:46:05;17.57;;;12.63;;
34920;SDS011;21128;50.016;20.002;2022-12-07T04:48:54;20.23;;;13.33;;
34920;SDS011;21128;50.016;20.002;2022-12-07T04:51:40;21.10;;;13.43;;
34920;SDS011;21128;50.016;20.002;2022-12-07T04:54:33;16.87;;;13.05;;
34920;SDS011;21128;50.016;20.002;2022-12-07T04:57:19;17.07;;;12.83;;
34920;SDS011;21128;50.016;20.002;2022-12-07T05:00:04;21.37;;;12.77;;
34920;SDS011;21128;50.016;20.002;2022-12-07T05:02:51;19.23;;;13.53;;
34920;SDS011;21128;50.016;20.002;2022-12-07T05:05:39;17.70;;;11.83;;
34920;SDS011;21128;50.016;20.002;2022-12-07T05:08:33;18.20;;;13.37;;
34920;SDS011;21128;50.016;20.002;2022-12-07T05:11:26;18.70;;;12.95;;
34920;SDS011;21128;50.016;20.002;2022-12-07T05:14:31;16.25;;;12.15;;
34920;SDS011;21128;50.016;20.002;2022-12-07T05:17:16;18.43;;;12.47;;
34920;SDS011;21128;50.016;20.002;2022-12-07T05:20:02;19.10;;;13.67;;
34920;SDS011;21128;50.016;20.002;2022-12-07T05:22:48;21.55;;;13.45;;
34920;SDS011;21128;50.016;20.002;2022-12-07T05:25:40;16.30;;;13.33;;
34920;SDS011;21128;50.016;20.002;2022-12-07T05:28:26;16.93;;;12.70;;
34920;SDS011;21128;50.016;20.002;2022-12-07T05:31:18;17.25;;;12.80;;
34920;SDS011;21128;50.016;20.002;2022-12-07T05:34:04;20.17;;;13.47;;
34920;SDS011;21128;50.016;20.002;2022-12-07T05:36:49;18.17;;;13.23;;
34920;SDS011;21128;50.016;20.002;2022-12-07T05:39:42;14.70;;;12.23;;
34920;SDS011;21128;50.016;20.002;2022-12-07T05:42:28;15.73;;;11.83;;
34920;SDS011;21128;50.016;20.002;2022-12-07T05:45:13;17.95;;;12.70;;
34920;SDS011;21128;50.016;20.002;2022-12-07T05:48:06;12.47;;;8.37;;
34920;SDS011;21128;50.016;20.002;2022-12-07T05:50:51;16.80;;;12.23;;
34920;SDS011;21128;50.016;20.002;2022-12-07T05:53:37;15.67;;;12.50;;
34920;SDS011;21128;50.016;20.002;2022-12-07T05:56:29;17.43;;;12.90;;
34920;SDS011;21128;50.016;20.002;2022-12-07T05:59:15;14.93;;;11.87;;
34920;SDS011;21128;50.016;20.002;2022-12-07T06:02:09;17.40;;;13.00;;
34920;SDS011;21128;50.016;20.002;2022-12-07T06:04:56;17.53;;;12.57;;
34920;SDS011;21128;50.016;20.002;2022-12-07T06:07:42;21.23;;;11.73;;
34920;SDS011;21128;50.016;20.002;2022-12-07T06:10:28;22.45;;;10.90;;
34920;SDS011;21128;50.016;20.002;2022-12-07T06:13:13;11.95;;;9.30;;
34920;SDS011;21128;50.016;20.002;2022-12-07T06:16:06;10.03;;;8.20;;
34920;SDS011;21128;50.016;20.002;2022-12-07T06:18:52;10.93;;;7.78;;
34920;SDS011;21128;50.016;20.002;2022-12-07T06:21:38;10.93;;;7.47;;
34920;SDS011;21128;50.016;20.002;2022-12-07T06:24:24;11.00;;;7.60;;
34920;SDS011;21128;50.016;20.002;2022-12-07T06:27:10;11.65;;;6.95;;
34920;SDS011;21128;50.016;20.002;2022-12-07T06:29:56;9.30;;;6.60;;
34920;SDS011;21128;50.016;20.002;2022-12-07T06:32:41;7.95;;;6.70;;
34920;SDS011;21128;50.016;20.002;2022-12-07T06:35:27;12.03;;;7.17;;
34920;SDS011;21128;50.016;20.002;2022-12-07T06:38:12;10.43;;;7.13;;
34920;SDS011;21128;50.016;20.002;2022-12-07T06:40:58;10.40;;;7.50;;
34920;SDS011;21128;50.016;20.002;2022-12-07T06:43:44;10.20;;;8.00;;
34920;SDS011;21128;50.016;20.002;2022-12-07T06:46:50;10.10;;;7.30;;
34920;SDS011;21128;50.016;20.002;2022-12-07T06:49:36;11.22;;;8.00;;
34920;SDS011;21128;50.016;20.002;2022-12-07T06:52:22;10.37;;;8.40;;
34920;SDS011;21128;50.016;20.002;2022-12-07T06:55:08;13.75;;;8.95;;
34920;SDS011;21128;50.016;20.002;2022-12-07T06:57:54;12.73;;;8.47;;
34920;SDS011;21128;50.016;20.002;2022-12-07T07:00:39;12.03;;;8.83;;
34920;SDS011;21128;50.016;20.002;2022-12-07T07:03:26;11.50;;;8.63;;
34920;SDS011;21128;50.016;20.002;2022-12-07T07:06:12;13.00;;;9.23;;
34920;SDS011;21128;50.016;20.002;2022-12-07T07:08:58;11.53;;;8.63;;
34920;SDS011;21128;50.016;20.002;2022-12-07T07:11:50;14.30;;;9.40;;
34920;SDS011;21128;50.016;20.002;2022-12-07T07:14:36;16.80;;;10.23;;
34920;SDS011;21128;50.016;20.002;2022-12-07T07:17:22;12.60;;;9.80;;
34920;SDS011;21128;50.016;20.002;2022-12-07T07:20:07;14.33;;;10.30;;
34920;SDS011;21128;50.016;20.002;2022-12-07T07:22:54;16.73;;;11.20;;
34920;SDS011;21128;50.016;20.002;2022-12-07T07:25:41;15.87;;;11.90;;
34920;SDS011;21128;50.016;20.002;2022-12-07T07:28:27;17.77;;;12.47;;
34920;SDS011;21128;50.016;20.002;2022-12-07T07:31:12;20.93;;;12.40;;
34920;SDS011;21128;50.016;20.002;2022-12-07T07:33:58;17.90;;;12.70;;
34920;SDS011;21128;50.016;20.002;2022-12-07T07:36:50;20.03;;;13.83;;
34920;SDS011;21128;50.016;20.002;2022-12-07T07:39:35;18.50;;;13.27;;
34920;SDS011;21128;50.016;20.002;2022-12-07T07:42:21;18.63;;;13.50;;
34920;SDS011;21128;50.016;20.002;2022-12-07T07:45:06;20.37;;;13.03;;
34920;SDS011;21128;50.016;20.002;2022-12-07T07:48:00;19.90;;;13.83;;
34920;SDS011;21128;50.016;20.002;2022-12-07T07:50:45;18.90;;;13.07;;
34920;SDS011;21128;50.016;20.002;2022-12-07T07:53:31;17.77;;;12.93;;
34920;SDS011;21128;50.016;20.002;2022-12-07T07:56:16;21.10;;;14.97;;
34920;SDS011;21128;50.016;20.002;2022-12-07T07:59:02;20.43;;;15.23;;
34920;SDS011;21128;50.016;20.002;2022-12-07T08:01:48;21.20;;;14.37;;
34920;SDS011;21128;50.016;20.002;2022-12-07T08:04:34;22.20;;;16.00;;
34920;SDS011;21128;50.016;20.002;2022-12-07T08:07:20;19.27;;;14.13;;
34920;SDS011;21128;50.016;20.002;2022-12-07T08:10:07;17.50;;;13.50;;
34920;SDS011;21128;50.016;20.002;2022-12-07T08:13:02;16.83;;;13.17;;
34920;SDS011;21128;50.016;20.002;2022-12-07T08:16:08;19.67;;;13.37;;
34920;SDS011;21128;50.016;20.002;2022-12-07T08:18:55;17.60;;;12.70;;
34920;SDS011;21128;50.016;20.002;2022-12-07T08:21:41;16.20;;;11.83;;
34920;SDS011;21128;50.016;20.002;2022-12-07T08:24:34;16.12;;;11.40;;
34920;SDS011;21128;50.016;20.002;2022-12-07T08:27:20;17.57;;;11.20;;
34920;SDS011;21128;50.016;20.002;2022-12-07T08:30:09;15.67;;;11.20;;
34920;SDS011;21128;50.016;20.002;2022-12-07T08:33:01;18.93;;;12.03;;
34920;SDS011;21128;50.016;20.002;2022-12-07T08:35:47;15.67;;;12.17;;
34920;SDS011;21128;50.016;20.002;2022-12-07T08:38:34;16.47;;;11.80;;
34920;SDS011;21128;50.016;20.002;2022-12-07T08:41:20;17.10;;;12.27;;
34920;SDS011;21128;50.016;20.002;2022-12-07T08:44:05;15.50;;;11.73;;
34920;SDS011;21128;50.016;20.002;2022-12-07T08:47:11;17.70;;;12.97;;
34920;SDS011;21128;50.016;20.002;2022-12-07T08:50:04;15.23;;;12.10;;
34920;SDS011;21128;50.016;20.002;2022-12-07T08:52:53;17.43;;;12.73;;
34920;SDS011;21128;50.016;20.002;2022-12-07T08:55:41;17.63;;;12.70;;
34920;SDS011;21128;50.016;20.002;2022-12-07T08:58:26;18.27;;;12.50;;
34920;SDS011;21128;50.016;20.002;2022-12-07T09:01:12;17.67;;;13.20;;
34920;SDS011;21128;50.016;20.002;2022-12-07T09:03:57;20.13;;;14.50;;
34920;SDS011;21128;50.016;20.002;2022-12-07T09:06:43;20.67;;;15.93;;
34920;SDS011;21128;50.016;20.002;2022-12-07T09:09:29;23.20;;;16.10;;
34920;SDS011;21128;50.016;20.002;2022-12-07T09:12:15;19.90;;;15.13;;
34920;SDS011;21128;50.016;20.002;2022-12-07T09:15:01;20.00;;;15.33;;
34920;SDS011;21128;50.016;20.002;2022-12-07T09:17:53;21.07;;;15.27;;
34920;SDS011;21128;50.016;20.002;2022-12-07T09:20:46;19.77;;;15.27;;
34920;SDS011;21128;50.016;20.002;2022-12-07T09:23:31;20.20;;;13.73;;
34920;SDS011;21128;50.016;20.002;2022-12-07T09:26:17;18.83;;;13.23;;
34920;SDS011;21128;50.016;20.002;2022-12-07T09:29:02;18.93;;;12.87;;
34920;SDS011;21128;50.016;20.002;2022-12-07T09:31:48;15.43;;;11.57;;
34920;SDS011;21128;50.016;20.002;2022-12-07T09:34:41;15.93;;;10.47;;
34920;SDS011;21128;50.016;20.002;2022-12-07T09:37:27;18.07;;;11.53;;
34920;SDS011;21128;50.016;20.002;2022-12-07T09:40:20;17.77;;;10.83;;
34920;SDS011;21128;50.016;20.002;2022-12-07T09:43:11;13.53;;;9.80;;
34920;SDS011;21128;50.016;20.002;2022-12-07T09:46:03;12.93;;;9.77;;
34920;SDS011;21128;50.016;20.002;2022-12-07T09:48:55;13.30;;;9.27;;
34920;SDS011;21128;50.016;20.002;2022-12-07T09:51:41;12.90;;;8.90;;
34920;SDS011;21128;50.016;20.002;2022-12-07T09:54:27;11.97;;;8.50;;
34920;SDS011;21128;50.016;20.002;2022-12-07T09:57:15;14.27;;;9.90;;
34920;SDS011;21128;50.016;20.002;2022-12-07T10:00:03;11.60;;;8.40;;
34920;SDS011;21128;50.016;20.002;2022-12-07T10:02:55;11.93;;;9.10;;
34920;SDS011;21128;50.016;20.002;2022-12-07T10:05:50;12.17;;;8.40;;
34920;SDS011;21128;50.016;20.002;2022-12-07T10:08:37;12.33;;;8.43;;
34920;SDS011;21128;50.016;20.002;2022-12-07T10:11:23;14.07;;;8.40;;
34920;SDS011;21128;50.016;20.002;2022-12-07T10:14:12;11.23;;;7.83;;
34920;SDS011;21128;50.016;20.002;2022-12-07T10:16:59;15.60;;;8.63;;
34920;SDS011;21128;50.016;20.002;2022-12-07T10:19:51;11.55;;;9.30;;
34920;SDS011;21128;50.016;20.002;2022-12-07T10:22:37;13.33;;;8.83;;
34920;SDS011;21128;50.016;20.002;2022-12-07T10:25:24;14.03;;;9.27;;
34920;SDS011;21128;50.016;20.002;2022-12-07T10:28:17;14.60;;;9.10;;
34920;SDS011;21128;50.016;20.002;2022-12-07T10:31:15;12.10;;;9.30;;
34920;SDS011;21128;50.016;20.002;2022-12-07T10:34:03;14.20;;;10.23;;
34920;SDS011;21128;50.016;20.002;2022-12-07T10:36:49;11.37;;;9.07;;
34920;SDS011;21128;50.016;20.002;2022-12-07T10:39:43;12.37;;;9.23;;
34920;SDS011;21128;50.016;20.002;2022-12-07T10:42:31;12.63;;;9.60;;
34920;SDS011;21128;50.016;20.002;2022-12-07T10:45:17;14.37;;;9.70;;
34920;SDS011;21128;50.016;20.002;2022-12-07T10:51:10;16.80;;;10.23;;
34920;SDS011;21128;50.016;20.002;2022-12-07T10:54:43;13.60;;;10.00;;
34920;SDS011;21128;50.016;20.002;2022-12-07T11:06:51;11.07;;;8.20;;
34920;SDS011;21128;50.016;20.002;2022-12-07T11:23:23;10.10;;;6.93;;
34920;SDS011;21128;50.016;20.002;2022-12-07T11:26:49;10.70;;;7.73;;
34920;SDS011;21128;50.016;20.002;2022-12-07T11:41:29;9.97;;;7.97;;
34920;SDS011;21128;50.016;20.002;2022-12-07T11:44:32;10.63;;;8.37;;
34920;SDS011;21128;50.016;20.002;2022-12-07T11:50:56;14.47;;;8.40;;
34920;SDS011;21128;50.016;20.002;2022-12-07T11:53:45;10.07;;;7.77;;
34920;SDS011;21128;50.016;20.002;2022-12-07T11:57:02;8.90;;;6.73;;
34920;SDS011;21128;50.016;20.002;2022-12-07T11:59:59;8.83;;;6.92;;
34920;SDS011;21128;50.016;20.002;2022-12-07T12:02:51;10.50;;;7.50;;
34920;SDS011;21128;50.016;20.002;2022-12-07T12:05:43;11.20;;;7.83;;
34920;SDS011;21128;50.016;20.002;2022-12-07T12:08:37;12.23;;;7.90;;
34920;SDS011;21128;50.016;20.002;2022-12-07T12:21:09;10.53;;;6.47;;
34920;SDS011;21128;50.016;20.002;2022-12-07T12:24:02;9.57;;;6.30;;
34920;SDS011;21128;50.016;20.002;2022-12-07T12:27:03;10.20;;;5.17;;
34920;SDS011;21128;50.016;20.002;2022-12-07T12:30:02;8.20;;;4.77;;
34920;SDS011;21128;50.016;20.002;2022-12-07T12:39:26;9.50;;;4.60;;
34920;SDS011;21128;50.016;20.002;2022-12-07T12:42:18;7.60;;;5.00;;
34920;SDS011;21128;50.016;20.002;2022-12-07T12:45:20;6.73;;;4.30;;
34920;SDS011;21128;50.016;20.002;2022-12-07T12:48:28;8.53;;;4.60;;
34920;SDS011;21128;50.016;20.002;2022-12-07T12:51:37;7.37;;;4.63;;
34920;SDS011;21128;50.016;20.002;2022-12-07T12:54:25;7.90;;;4.73;;
34920;SDS011;21128;50.016;20.002;2022-12-07T12:57:25;7.73;;;4.47;;
34920;SDS011;21128;50.016;20.002;2022-12-07T13:03:04;7.93;;;4.67;;
34920;SDS011;21128;50.016;20.002;2022-12-07T13:06:02;7.00;;;4.67;;
34920;SDS011;21128;50.016;20.002;2022-12-07T13:09:18;6.67;;;4.73;;
34920;SDS011;21128;50.016;20.002;2022-12-07T13:12:12;6.35;;;4.95;;
34920;SDS011;21128;50.016;20.002;2022-12-07T13:15:27;10.95;;;4.90;;
34920;SDS011;21128;50.016;20.002;2022-12-07T13:24:06;8.80;;;5.03;;
34920;SDS011;21128;50.016;20.002;2022-12-07T13:26:55;5.65;;;4.40;;
34920;SDS011;21128;50.016;20.002;2022-12-07T13:29:49;6.43;;;4.83;;
34920;SDS011;21128;50.016;20.002;2022-12-07T13:32:35;8.67;;;4.80;;
34920;SDS011;21128;50.016;20.002;2022-12-07T13:35:34;11.13;;;5.03;;
34920;SDS011;21128;50.016;20.002;2022-12-07T13:38:30;8.93;;;5.10;;
34920;SDS011;21128;50.016;20.002;2022-12-07T13:41:19;8.63;;;4.83;;
34920;SDS011;21128;50.016;20.002;2022-12-07T13:44:16;8.23;;;4.80;;
34920;SDS011;21128;50.016;20.002;2022-12-07T13:47:40;8.97;;;6.23;;
34920;SDS011;21128;50.016;20.002;2022-12-07T13:50:31;7.60;;;5.40;;
34920;SDS011;21128;50.016;20.002;2022-12-07T13:53:26;9.83;;;5.58;;
34920;SDS011;21128;50.016;20.002;2022-12-07T13:56:15;11.00;;;6.40;;
34920;SDS011;21128;50.016;20.002;2022-12-07T13:59:01;11.33;;;5.73;;
34920;SDS011;21128;50.016;20.002;2022-12-07T14:01:56;8.77;;;6.00;;
34920;SDS011;21128;50.016;20.002;2022-12-07T14:04:42;12.13;;;5.60;;
34920;SDS011;21128;50.016;20.002;2022-12-07T14:07:28;7.13;;;5.60;;
34920;SDS011;21128;50.016;20.002;2022-12-07T14:10:24;25.43;;;12.73;;
34920;SDS011;21128;50.016;20.002;2022-12-07T14:13:33;5.95;;;4.37;;
34920;SDS011;21128;50.016;20.002;2022-12-07T14:22:42;9.67;;;5.93;;
34920;SDS011;21128;50.016;20.002;2022-12-07T14:25:27;9.57;;;5.83;;
34920;SDS011;21128;50.016;20.002;2022-12-07T14:31:17;10.40;;;6.60;;
34920;SDS011;21128;50.016;20.002;2022-12-07T14:34:09;10.07;;;6.73;;
34920;SDS011;21128;50.016;20.002;2022-12-07T14:36:57;11.05;;;7.00;;
34920;SDS011;21128;50.016;20.002;2022-12-07T14:39:43;10.77;;;7.27;;
34920;SDS011;21128;50.016;20.002;2022-12-07T14:42:28;13.80;;;7.03;;
34920;SDS011;21128;50.016;20.002;2022-12-07T14:45:17;15.90;;;9.90;;
34920;SDS011;21128;50.016;20.002;2022-12-07T14:48:17;12.57;;;7.63;;
34920;SDS011;21128;50.016;20.002;2022-12-07T14:51:03;10.20;;;7.30;;
34920;SDS011;21128;50.016;20.002;2022-12-07T14:53:55;10.83;;;8.07;;
34920;SDS011;21128;50.016;20.002;2022-12-07T14:56:41;9.50;;;7.00;;
34920;SDS011;21128;50.016;20.002;2022-12-07T14:59:29;7.50;;;5.73;;
34920;SDS011;21128;50.016;20.002;2022-12-07T15:02:14;9.13;;;5.93;;
34920;SDS011;21128;50.016;20.002;2022-12-07T15:05:01;8.73;;;5.63;;
34920;SDS011;21128;50.016;20.002;2022-12-07T15:07:47;9.35;;;6.15;;
34920;SDS011;21128;50.016;20.002;2022-12-07T15:10:34;9.10;;;5.57;;
34920;SDS011;21128;50.016;20.002;2022-12-07T15:13:24;8.53;;;6.00;;
34920;SDS011;21128;50.016;20.002;2022-12-07T15:16:28;12.10;;;7.07;;
34920;SDS011;21128;50.016;20.002;2022-12-07T15:19:22;9.80;;;6.80;;
34920;SDS011;21128;50.016;20.002;2022-12-07T15:22:11;12.03;;;7.50;;
34920;SDS011;21128;50.016;20.002;2022-12-07T15:24:57;12.63;;;7.50;;
34920;SDS011;21128;50.016;20.002;2022-12-07T15:27:43;11.37;;;7.27;;
34920;SDS011;21128;50.016;20.002;2022-12-07T15:30:39;11.90;;;7.30;;
34920;SDS011;21128;50.016;20.002;2022-12-07T15:33:32;11.87;;;7.80;;
34920;SDS011;21128;50.016;20.002;2022-12-07T15:36:19;15.40;;;8.83;;
34920;SDS011;21128;50.016;20.002;2022-12-07T15:39:08;10.77;;;6.67;;
34920;SDS011;21128;50.016;20.002;2022-12-07T15:41:54;11.30;;;7.33;;
34920;SDS011;21128;50.016;20.002;2022-12-07T15:44:40;11.23;;;7.20;;
34920;SDS011;21128;50.016;20.002;2022-12-07T15:48:03;12.47;;;7.63;;
34920;SDS011;21128;50.016;20.002;2022-12-07T15:50:49;12.60;;;8.30;;
34920;SDS011;21128;50.016;20.002;2022-12-07T15:53:35;14.03;;;7.60;;
34920;SDS011;21128;50.016;20.002;2022-12-07T15:56:21;12.37;;;7.87;;
34920;SDS011;21128;50.016;20.002;2022-12-07T15:59:07;12.60;;;8.53;;
34920;SDS011;21128;50.016;20.002;2022-12-07T16:01:52;15.10;;;8.47;;
34920;SDS011;21128;50.016;20.002;2022-12-07T16:04:38;18.70;;;9.90;;
34920;SDS011;21128;50.016;20.002;2022-12-07T16:07:24;16.10;;;9.87;;
34920;SDS011;21128;50.016;20.002;2022-12-07T16:10:09;18.20;;;10.33;;
34920;SDS011;21128;50.016;20.002;2022-12-07T16:12:55;16.65;;;10.20;;
34920;SDS011;21128;50.016;20.002;2022-12-07T16:15:42;19.43;;;10.87;;
34920;SDS011;21128;50.016;20.002;2022-12-07T16:18:28;18.30;;;10.87;;
34920;SDS011;21128;50.016;20.002;2022-12-07T16:21:14;16.23;;;10.07;;
34920;SDS011;21128;50.016;20.002;2022-12-07T16:24:01;17.60;;;11.10;;
34920;SDS011;21128;50.016;20.002;2022-12-07T16:26:53;16.15;;;9.63;;
34920;SDS011;21128;50.016;20.002;2022-12-07T16:29:45;17.80;;;11.17;;
34920;SDS011;21128;50.016;20.002;2022-12-07T16:32:31;19.50;;;11.17;;
34920;SDS011;21128;50.016;20.002;2022-12-07T16:35:23;19.53;;;12.17;;
34920;SDS011;21128;50.016;20.002;2022-12-07T16:38:09;22.00;;;11.73;;
34920;SDS011;21128;50.016;20.002;2022-12-07T16:40:54;22.17;;;10.97;;
34920;SDS011;21128;50.016;20.002;2022-12-07T16:43:40;20.10;;;11.53;;
34920;SDS011;21128;50.016;20.002;2022-12-07T16:46:26;18.40;;;11.70;;
34920;SDS011;21128;50.016;20.002;2022-12-07T16:49:25;17.53;;;10.87;;
34920;SDS011;21128;50.016;20.002;2022-12-07T16:52:12;18.57;;;11.60;;
34920;SDS011;21128;50.016;20.002;2022-12-07T16:54:57;16.70;;;11.30;;
34920;SDS011;21128;50.016;20.002;2022-12-07T16:57:43;17.23;;;11.67;;
34920;SDS011;21128;50.016;20.002;2022-12-07T17:00:28;19.10;;;11.63;;
34920;SDS011;21128;50.016;20.002;2022-12-07T17:03:14;18.90;;;11.07;;
34920;SDS011;21128;50.016;20.002;2022-12-07T17:06:02;19.70;;;11.70;;
34920;SDS011;21128;50.016;20.002;2022-12-07T17:08:48;16.27;;;10.67;;
34920;SDS011;21128;50.016;20.002;2022-12-07T17:11:35;15.47;;;11.13;;
34920;SDS011;21128;50.016;20.002;2022-12-07T17:14:21;18.37;;;10.57;;
34920;SDS011;21128;50.016;20.002;2022-12-07T17:17:26;16.53;;;10.27;;
34920;SDS011;21128;50.016;20.002;2022-12-07T17:20:12;16.63;;;10.13;;
34920;SDS011;21128;50.016;20.002;2022-12-07T17:22:59;19.57;;;11.50;;
34920;SDS011;21128;50.016;20.002;2022-12-07T17:25:52;20.43;;;11.03;;
34920;SDS011;21128;50.016;20.002;2022-12-07T17:28:44;17.10;;;9.80;;
34920;SDS011;21128;50.016;20.002;2022-12-07T17:31:31;17.95;;;10.00;;
34920;SDS011;21128;50.016;20.002;2022-12-07T17:34:24;15.80;;;9.70;;
34920;SDS011;21128;50.016;20.002;2022-12-07T17:37:10;12.90;;;8.97;;
34920;SDS011;21128;50.016;20.002;2022-12-07T17:39:56;24.03;;;13.20;;
34920;SDS011;21128;50.016;20.002;2022-12-07T17:42:42;14.10;;;9.80;;
34920;SDS011;21128;50.016;20.002;2022-12-07T17:45:32;14.20;;;8.57;;
34920;SDS011;21128;50.016;20.002;2022-12-07T17:48:38;15.80;;;8.97;;
34920;SDS011;21128;50.016;20.002;2022-12-07T17:51:24;16.50;;;8.60;;
34920;SDS011;21128;50.016;20.002;2022-12-07T17:54:28;14.13;;;8.87;;
34920;SDS011;21128;50.016;20.002;2022-12-07T17:57:14;13.70;;;9.03;;
34920;SDS011;21128;50.016;20.002;2022-12-07T17:59:59;14.00;;;9.00;;
34920;SDS011;21128;50.016;20.002;2022-12-07T18:02:45;18.83;;;8.97;;
34920;SDS011;21128;50.016;20.002;2022-12-07T18:05:31;16.90;;;8.93;;
34920;SDS011;21128;50.016;20.002;2022-12-07T18:08:18;14.63;;;9.00;;
34920;SDS011;21128;50.016;20.002;2022-12-07T18:11:04;15.93;;;9.40;;
34920;SDS011;21128;50.016;20.002;2022-12-07T18:13:52;14.43;;;9.60;;
34920;SDS011;21128;50.016;20.002;2022-12-07T18:16:38;15.03;;;9.60;;
34920;SDS011;21128;50.016;20.002;2022-12-07T18:19:23;18.37;;;10.93;;
34920;SDS011;21128;50.016;20.002;2022-12-07T18:22:09;17.50;;;11.20;;
34920;SDS011;21128;50.016;20.002;2022-12-07T18:25:01;17.03;;;10.77;;
34920;SDS011;21128;50.016;20.002;2022-12-07T18:27:50;16.25;;;10.20;;
34920;SDS011;21128;50.016;20.002;2022-12-07T18:30:38;18.43;;;10.73;;